sensor_id;sensor_type;location;lat;lon;timestamp;P1;durP1;ratioP1;P2;durP2;ratioP2
72584;SDS011;60618;40.084;32.908;2022-12-18T00:01:32;32.75;;;15.30;;
72584;SDS011;60618;40.084;32.908;2022-12-18T00:04:01;44.93;;;16.17;;
72584;SDS011;60618;40.084;32.908;2022-12-18T00:06:31;42.78;;;16.08;;
72584;SDS011;60618;40.084;32.908;2022-12-18T00:08:59;40.15;;;17.25;;
72584;SDS011;60618;40.084;32.908;2022-12-18T00:11:28;33.58;;;16.33;;
72584;SDS011;60618;40.084;32.908;2022-12-18T00:13:56;57.92;;;18.75;;
72584;SDS011;60618;40.084;32.908;2022-12-18T00:16:25;45.77;;;18.50;;
72584;SDS011;60618;40.084;32.908;2022-12-18T00:18:54;46.33;;;17.92;;
72584;SDS011;60618;40.084;32.908;2022-12-18T00:21:23;52.20;;;18.83;;
72584;SDS011;60618;40.084;32.908;2022-12-18T00:23:50;89.25;;;19.45;;
72584;SDS011;60618;40.084;32.908;2022-12-18T00:26:51;61.80;;;17.60;;
72584;SDS011;60618;40.084;32.908;2022-12-18T00:29:12;37.27;;;15.70;;
72584;SDS011;60618;40.084;32.908;2022-12-18T00:31:40;27.10;;;13.38;;
72584;SDS011;60618;40.084;32.908;2022-12-18T00:34:11;24.42;;;12.55;;
72584;SDS011;60618;40.084;32.908;2022-12-18T00:36:39;28.40;;;12.85;;
72584;SDS011;60618;40.084;32.908;2022-12-18T00:39:07;46.90;;;16.63;;
72584;SDS011;60618;40.084;32.908;2022-12-18T00:41:34;57.70;;;17.33;;
72584;SDS011;60618;40.084;32.908;2022-12-18T00:44:01;45.90;;;18.05;;
72584;SDS011;60618;40.084;32.908;2022-12-18T00:46:30;36.95;;;17.40;;
72584;SDS011;60618;40.084;32.908;2022-12-18T00:48:57;42.55;;;16.98;;
72584;SDS011;60618;40.084;32.908;2022-12-18T00:51:24;123.57;;;23.30;;
72584;SDS011;60618;40.084;32.908;2022-12-18T00:53:52;236.23;;;28.63;;
72584;SDS011;60618;40.084;32.908;2022-12-18T00:56:23;137.98;;;23.88;;
72584;SDS011;60618;40.084;32.908;2022-12-18T00:58:50;127.13;;;23.13;;
72584;SDS011;60618;40.084;32.908;2022-12-18T01:01:17;65.10;;;21.23;;
72584;SDS011;60618;40.084;32.908;2022-12-18T01:03:44;74.97;;;21.83;;
72584;SDS011;60618;40.084;32.908;2022-12-18T01:06:12;89.10;;;21.67;;
72584;SDS011;60618;40.084;32.908;2022-12-18T01:08:40;85.22;;;21.42;;
72584;SDS011;60618;40.084;32.908;2022-12-18T01:11:08;67.15;;;22.10;;
72584;SDS011;60618;40.084;32.908;2022-12-18T01:13:40;85.53;;;22.60;;
72584;SDS011;60618;40.084;32.908;2022-12-18T01:16:07;62.08;;;20.80;;
72584;SDS011;60618;40.084;32.908;2022-12-18T01:18:34;61.87;;;20.60;;
72584;SDS011;60618;40.084;32.908;2022-12-18T01:21:05;64.20;;;21.52;;
72584;SDS011;60618;40.084;32.908;2022-12-18T01:23:33;58.65;;;21.05;;
72584;SDS011;60618;40.084;32.908;2022-12-18T01:26:05;54.05;;;20.95;;
72584;SDS011;60618;40.084;32.908;2022-12-18T01:28:36;26.70;;;12.98;;
72584;SDS011;60618;40.084;32.908;2022-12-18T01:31:12;54.87;;;20.53;;
72584;SDS011;60618;40.084;32.908;2022-12-18T01:33:43;132.20;;;24.13;;
72584;SDS011;60618;40.084;32.908;2022-12-18T01:36:17;92.63;;;23.13;;
72584;SDS011;60618;40.084;32.908;2022-12-18T01:38:47;113.30;;;23.08;;
72584;SDS011;60618;40.084;32.908;2022-12-18T01:41:14;53.70;;;17.52;;
72584;SDS011;60618;40.084;32.908;2022-12-18T01:43:47;86.13;;;20.93;;
72584;SDS011;60618;40.084;32.908;2022-12-18T01:46:17;127.97;;;23.08;;
72584;SDS011;60618;40.084;32.908;2022-12-18T01:48:46;119.78;;;23.75;;
72584;SDS011;60618;40.084;32.908;2022-12-18T01:51:16;337.55;;;32.75;;
72584;SDS011;60618;40.084;32.908;2022-12-18T01:53:43;281.77;;;32.33;;
72584;SDS011;60618;40.084;32.908;2022-12-18T01:56:13;173.87;;;28.63;;
72584;SDS011;60618;40.084;32.908;2022-12-18T01:58:50;214.40;;;30.15;;
72584;SDS011;60618;40.084;32.908;2022-12-18T02:01:38;344.75;;;34.83;;
72584;SDS011;60618;40.084;32.908;2022-12-18T02:04:21;278.00;;;35.05;;
72584;SDS011;60618;40.084;32.908;2022-12-18T02:09:48;106.60;;;26.37;;
72584;SDS011;60618;40.084;32.908;2022-12-18T02:12:22;76.88;;;20.67;;
72584;SDS011;60618;40.084;32.908;2022-12-18T02:14:55;242.38;;;29.42;;
72584;SDS011;60618;40.084;32.908;2022-12-18T02:17:41;73.05;;;20.85;;
72584;SDS011;60618;40.084;32.908;2022-12-18T02:20:21;52.72;;;22.02;;
72584;SDS011;60618;40.084;32.908;2022-12-18T02:26:16;51.67;;;18.63;;
72584;SDS011;60618;40.084;32.908;2022-12-18T02:29:00;63.08;;;21.10;;
72584;SDS011;60618;40.084;32.908;2022-12-18T02:31:35;94.80;;;23.55;;
72584;SDS011;60618;40.084;32.908;2022-12-18T02:34:06;306.15;;;31.92;;
72584;SDS011;60618;40.084;32.908;2022-12-18T02:36:36;279.67;;;32.33;;
72584;SDS011;60618;40.084;32.908;2022-12-18T02:39:07;374.48;;;37.60;;
72584;SDS011;60618;40.084;32.908;2022-12-18T02:41:37;246.30;;;32.45;;
72584;SDS011;60618;40.084;32.908;2022-12-18T02:44:09;166.38;;;28.63;;
72584;SDS011;60618;40.084;32.908;2022-12-18T02:46:39;117.70;;;23.25;;
72584;SDS011;60618;40.084;32.908;2022-12-18T02:49:15;62.03;;;21.13;;
72584;SDS011;60618;40.084;32.908;2022-12-18T02:52:09;50.25;;;19.30;;
72584;SDS011;60618;40.084;32.908;2022-12-18T02:58:10;63.92;;;23.77;;
72584;SDS011;60618;40.084;32.908;2022-12-18T03:03:05;88.83;;;24.87;;
72584;SDS011;60618;40.084;32.908;2022-12-18T03:05:42;104.75;;;24.75;;
72584;SDS011;60618;40.084;32.908;2022-12-18T03:08:30;102.85;;;26.92;;
72584;SDS011;60618;40.084;32.908;2022-12-18T03:11:03;272.65;;;32.38;;
72584;SDS011;60618;40.084;32.908;2022-12-18T03:13:34;242.60;;;31.25;;
72584;SDS011;60618;40.084;32.908;2022-12-18T03:16:07;89.77;;;23.83;;
72584;SDS011;60618;40.084;32.908;2022-12-18T03:18:56;68.25;;;21.30;;
72584;SDS011;60618;40.084;32.908;2022-12-18T03:21:32;56.13;;;20.75;;
72584;SDS011;60618;40.084;32.908;2022-12-18T03:24:04;52.05;;;24.30;;
72584;SDS011;60618;40.084;32.908;2022-12-18T03:26:35;61.63;;;19.92;;
72584;SDS011;60618;40.084;32.908;2022-12-18T03:29:09;116.20;;;23.57;;
72584;SDS011;60618;40.084;32.908;2022-12-18T03:31:41;54.67;;;18.65;;
72584;SDS011;60618;40.084;32.908;2022-12-18T03:34:15;233.57;;;28.73;;
72584;SDS011;60618;40.084;32.908;2022-12-18T03:36:48;66.22;;;23.27;;
72584;SDS011;60618;40.084;32.908;2022-12-18T03:39:15;42.47;;;17.83;;
72584;SDS011;60618;40.084;32.908;2022-12-18T03:44:25;71.07;;;20.63;;
72584;SDS011;60618;40.084;32.908;2022-12-18T03:46:58;67.53;;;21.00;;
72584;SDS011;60618;40.084;32.908;2022-12-18T03:54:58;71.93;;;20.10;;
72584;SDS011;60618;40.084;32.908;2022-12-18T03:57:28;151.10;;;23.00;;
72584;SDS011;60618;40.084;32.908;2022-12-18T03:59:58;110.40;;;20.08;;
72584;SDS011;60618;40.084;32.908;2022-12-18T04:02:28;49.13;;;18.38;;
72584;SDS011;60618;40.084;32.908;2022-12-18T04:05:01;91.40;;;24.05;;
72584;SDS011;60618;40.084;32.908;2022-12-18T04:07:31;61.00;;;20.30;;
72584;SDS011;60618;40.084;32.908;2022-12-18T04:09:58;58.58;;;19.30;;
72584;SDS011;60618;40.084;32.908;2022-12-18T04:12:28;57.30;;;17.95;;
72584;SDS011;60618;40.084;32.908;2022-12-18T04:14:55;153.27;;;25.00;;
72584;SDS011;60618;40.084;32.908;2022-12-18T04:17:22;279.63;;;28.52;;
72584;SDS011;60618;40.084;32.908;2022-12-18T04:19:49;78.27;;;24.23;;
72584;SDS011;60618;40.084;32.908;2022-12-18T04:22:16;81.45;;;23.75;;
72584;SDS011;60618;40.084;32.908;2022-12-18T04:24:43;42.50;;;20.00;;
72584;SDS011;60618;40.084;32.908;2022-12-18T04:27:10;52.58;;;22.88;;
72584;SDS011;60618;40.084;32.908;2022-12-18T04:29:37;50.63;;;23.63;;
72584;SDS011;60618;40.084;32.908;2022-12-18T04:32:04;63.07;;;23.33;;
72584;SDS011;60618;40.084;32.908;2022-12-18T04:34:31;77.50;;;25.25;;
72584;SDS011;60618;40.084;32.908;2022-12-18T04:36:58;57.55;;;25.17;;
72584;SDS011;60618;40.084;32.908;2022-12-18T04:39:24;58.38;;;22.92;;
72584;SDS011;60618;40.084;32.908;2022-12-18T04:41:51;41.92;;;18.88;;
72584;SDS011;60618;40.084;32.908;2022-12-18T04:44:18;45.37;;;20.67;;
72584;SDS011;60618;40.084;32.908;2022-12-18T04:46:45;53.95;;;23.13;;
72584;SDS011;60618;40.084;32.908;2022-12-18T04:49:12;55.47;;;24.65;;
72584;SDS011;60618;40.084;32.908;2022-12-18T04:51:39;62.13;;;23.88;;
72584;SDS011;60618;40.084;32.908;2022-12-18T04:54:06;74.80;;;24.70;;
72584;SDS011;60618;40.084;32.908;2022-12-18T04:56:33;61.80;;;24.27;;
72584;SDS011;60618;40.084;32.908;2022-12-18T04:58:59;109.28;;;24.25;;
72584;SDS011;60618;40.084;32.908;2022-12-18T05:01:26;77.15;;;24.67;;
72584;SDS011;60618;40.084;32.908;2022-12-18T05:04:00;85.45;;;24.63;;
72584;SDS011;60618;40.084;32.908;2022-12-18T05:06:28;161.18;;;26.63;;
72584;SDS011;60618;40.084;32.908;2022-12-18T05:08:55;84.70;;;23.43;;
72584;SDS011;60618;40.084;32.908;2022-12-18T05:11:22;69.78;;;23.58;;
72584;SDS011;60618;40.084;32.908;2022-12-18T05:13:50;69.50;;;26.25;;
72584;SDS011;60618;40.084;32.908;2022-12-18T05:16:17;74.25;;;30.10;;
72584;SDS011;60618;40.084;32.908;2022-12-18T05:18:44;68.63;;;29.67;;
72584;SDS011;60618;40.084;32.908;2022-12-18T05:21:11;60.20;;;26.50;;
72584;SDS011;60618;40.084;32.908;2022-12-18T05:23:38;44.50;;;20.42;;
72584;SDS011;60618;40.084;32.908;2022-12-18T05:26:06;37.05;;;17.48;;
72584;SDS011;60618;40.084;32.908;2022-12-18T05:28:34;61.38;;;26.10;;
72584;SDS011;60618;40.084;32.908;2022-12-18T05:31:02;59.35;;;25.48;;
72584;SDS011;60618;40.084;32.908;2022-12-18T05:33:31;57.20;;;24.47;;
72584;SDS011;60618;40.084;32.908;2022-12-18T05:36:00;80.55;;;33.20;;
72584;SDS011;60618;40.084;32.908;2022-12-18T05:38:28;74.78;;;29.85;;
72584;SDS011;60618;40.084;32.908;2022-12-18T05:40:56;76.80;;;29.63;;
72584;SDS011;60618;40.084;32.908;2022-12-18T05:43:24;57.13;;;23.27;;
72584;SDS011;60618;40.084;32.908;2022-12-18T05:45:52;59.07;;;25.07;;
72584;SDS011;60618;40.084;32.908;2022-12-18T05:48:20;55.75;;;22.17;;
72584;SDS011;60618;40.084;32.908;2022-12-18T05:50:47;51.63;;;21.33;;
72584;SDS011;60618;40.084;32.908;2022-12-18T05:53:17;54.40;;;20.40;;
72584;SDS011;60618;40.084;32.908;2022-12-18T05:55:45;73.28;;;25.40;;
72584;SDS011;60618;40.084;32.908;2022-12-18T05:58:14;63.50;;;25.53;;
72584;SDS011;60618;40.084;32.908;2022-12-18T06:00:43;69.35;;;26.75;;
72584;SDS011;60618;40.084;32.908;2022-12-18T06:03:14;55.72;;;23.52;;
72584;SDS011;60618;40.084;32.908;2022-12-18T06:05:42;65.78;;;27.05;;
72584;SDS011;60618;40.084;32.908;2022-12-18T06:08:10;67.15;;;22.33;;
72584;SDS011;60618;40.084;32.908;2022-12-18T06:10:38;75.80;;;25.20;;
72584;SDS011;60618;40.084;32.908;2022-12-18T06:13:07;103.93;;;27.35;;
72584;SDS011;60618;40.084;32.908;2022-12-18T06:15:37;74.40;;;28.30;;
72584;SDS011;60618;40.084;32.908;2022-12-18T06:18:04;55.97;;;23.98;;
72584;SDS011;60618;40.084;32.908;2022-12-18T06:20:31;57.78;;;24.02;;
72584;SDS011;60618;40.084;32.908;2022-12-18T06:22:59;64.33;;;26.20;;
72584;SDS011;60618;40.084;32.908;2022-12-18T06:25:27;80.15;;;27.20;;
72584;SDS011;60618;40.084;32.908;2022-12-18T06:27:54;73.15;;;23.85;;
72584;SDS011;60618;40.084;32.908;2022-12-18T06:30:21;61.60;;;23.05;;
72584;SDS011;60618;40.084;32.908;2022-12-18T06:32:49;73.07;;;24.00;;
72584;SDS011;60618;40.084;32.908;2022-12-18T06:35:22;62.43;;;23.37;;
72584;SDS011;60618;40.084;32.908;2022-12-18T06:37:52;54.40;;;22.40;;
72584;SDS011;60618;40.084;32.908;2022-12-18T06:40:19;42.58;;;17.92;;
72584;SDS011;60618;40.084;32.908;2022-12-18T06:42:46;61.85;;;24.30;;
72584;SDS011;60618;40.084;32.908;2022-12-18T06:45:15;70.80;;;26.27;;
72584;SDS011;60618;40.084;32.908;2022-12-18T06:47:45;117.33;;;30.63;;
72584;SDS011;60618;40.084;32.908;2022-12-18T06:50:12;108.40;;;30.10;;
72584;SDS011;60618;40.084;32.908;2022-12-18T06:52:42;109.93;;;30.30;;
72584;SDS011;60618;40.084;32.908;2022-12-18T06:55:12;94.18;;;29.67;;
72584;SDS011;60618;40.084;32.908;2022-12-18T06:57:39;104.75;;;29.60;;
72584;SDS011;60618;40.084;32.908;2022-12-18T07:00:06;103.33;;;34.40;;
72584;SDS011;60618;40.084;32.908;2022-12-18T07:02:33;299.75;;;42.72;;
72584;SDS011;60618;40.084;32.908;2022-12-18T07:05:01;134.60;;;38.97;;
72584;SDS011;60618;40.084;32.908;2022-12-18T07:07:35;236.38;;;36.70;;
72584;SDS011;60618;40.084;32.908;2022-12-18T07:10:02;328.85;;;41.05;;
72584;SDS011;60618;40.084;32.908;2022-12-18T07:12:30;132.67;;;34.33;;
72584;SDS011;60618;40.084;32.908;2022-12-18T07:14:57;99.05;;;29.48;;
72584;SDS011;60618;40.084;32.908;2022-12-18T07:17:25;118.70;;;33.13;;
72584;SDS011;60618;40.084;32.908;2022-12-18T07:19:52;126.40;;;32.92;;
72584;SDS011;60618;40.084;32.908;2022-12-18T07:22:19;110.93;;;32.05;;
72584;SDS011;60618;40.084;32.908;2022-12-18T07:24:46;125.90;;;31.90;;
72584;SDS011;60618;40.084;32.908;2022-12-18T07:27:13;64.05;;;23.70;;
72584;SDS011;60618;40.084;32.908;2022-12-18T07:29:40;52.78;;;20.48;;
72584;SDS011;60618;40.084;32.908;2022-12-18T07:32:07;75.53;;;29.50;;
72584;SDS011;60618;40.084;32.908;2022-12-18T07:34:34;76.25;;;28.45;;
72584;SDS011;60618;40.084;32.908;2022-12-18T07:37:02;81.07;;;30.83;;
72584;SDS011;60618;40.084;32.908;2022-12-18T07:39:31;83.88;;;30.17;;
72584;SDS011;60618;40.084;32.908;2022-12-18T07:41:58;84.78;;;31.25;;
72584;SDS011;60618;40.084;32.908;2022-12-18T07:44:25;86.07;;;32.72;;
72584;SDS011;60618;40.084;32.908;2022-12-18T07:46:52;89.65;;;31.58;;
72584;SDS011;60618;40.084;32.908;2022-12-18T07:49:19;91.87;;;31.53;;
72584;SDS011;60618;40.084;32.908;2022-12-18T07:51:46;109.30;;;34.90;;
72584;SDS011;60618;40.084;32.908;2022-12-18T07:54:13;89.97;;;31.73;;
72584;SDS011;60618;40.084;32.908;2022-12-18T07:56:40;101.13;;;31.60;;
72584;SDS011;60618;40.084;32.908;2022-12-18T07:59:07;177.80;;;31.00;;
72584;SDS011;60618;40.084;32.908;2022-12-18T08:01:34;121.10;;;30.80;;
72584;SDS011;60618;40.084;32.908;2022-12-18T08:04:01;167.40;;;32.88;;
72584;SDS011;60618;40.084;32.908;2022-12-18T08:06:28;132.13;;;31.77;;
72584;SDS011;60618;40.084;32.908;2022-12-18T08:08:55;239.57;;;34.50;;
72584;SDS011;60618;40.084;32.908;2022-12-18T08:11:24;159.88;;;32.45;;
72584;SDS011;60618;40.084;32.908;2022-12-18T08:13:52;103.90;;;30.67;;
72584;SDS011;60618;40.084;32.908;2022-12-18T08:16:20;97.32;;;29.45;;
72584;SDS011;60618;40.084;32.908;2022-12-18T08:18:48;198.63;;;31.23;;
72584;SDS011;60618;40.084;32.908;2022-12-18T08:21:20;91.18;;;29.77;;
72584;SDS011;60618;40.084;32.908;2022-12-18T08:23:49;118.72;;;31.67;;
72584;SDS011;60618;40.084;32.908;2022-12-18T08:26:17;109.27;;;30.93;;
72584;SDS011;60618;40.084;32.908;2022-12-18T08:28:46;207.10;;;32.97;;
72584;SDS011;60618;40.084;32.908;2022-12-18T08:31:13;131.20;;;30.83;;
72584;SDS011;60618;40.084;32.908;2022-12-18T08:33:40;127.10;;;31.70;;
72584;SDS011;60618;40.084;32.908;2022-12-18T08:36:09;115.03;;;30.55;;
72584;SDS011;60618;40.084;32.908;2022-12-18T08:38:36;121.00;;;29.13;;
72584;SDS011;60618;40.084;32.908;2022-12-18T08:41:08;94.68;;;26.67;;
72584;SDS011;60618;40.084;32.908;2022-12-18T08:43:36;129.90;;;29.25;;
72584;SDS011;60618;40.084;32.908;2022-12-18T08:46:04;248.32;;;33.97;;
72584;SDS011;60618;40.084;32.908;2022-12-18T08:48:31;105.53;;;28.83;;
72584;SDS011;60618;40.084;32.908;2022-12-18T08:50:58;124.10;;;27.53;;
72584;SDS011;60618;40.084;32.908;2022-12-18T08:53:26;301.20;;;31.80;;
72584;SDS011;60618;40.084;32.908;2022-12-18T08:56:00;293.05;;;29.67;;
72584;SDS011;60618;40.084;32.908;2022-12-18T08:58:28;90.03;;;23.92;;
72584;SDS011;60618;40.084;32.908;2022-12-18T09:03:52;63.57;;;18.10;;
72584;SDS011;60618;40.084;32.908;2022-12-18T09:06:20;172.05;;;22.50;;
72584;SDS011;60618;40.084;32.908;2022-12-18T09:08:48;71.93;;;16.20;;
72584;SDS011;60618;40.084;32.908;2022-12-18T09:11:23;46.17;;;13.73;;
72584;SDS011;60618;40.084;32.908;2022-12-18T09:13:52;42.10;;;12.88;;
72584;SDS011;60618;40.084;32.908;2022-12-18T09:16:19;63.30;;;15.60;;
72584;SDS011;60618;40.084;32.908;2022-12-18T09:18:57;60.25;;;17.27;;
72584;SDS011;60618;40.084;32.908;2022-12-18T09:21:25;54.65;;;15.52;;
72584;SDS011;60618;40.084;32.908;2022-12-18T09:23:54;59.83;;;15.63;;
72584;SDS011;60618;40.084;32.908;2022-12-18T09:26:22;55.15;;;15.75;;
72584;SDS011;60618;40.084;32.908;2022-12-18T09:28:50;55.90;;;15.83;;
72584;SDS011;60618;40.084;32.908;2022-12-18T09:31:19;54.90;;;15.93;;
72584;SDS011;60618;40.084;32.908;2022-12-18T09:33:47;70.15;;;16.77;;
72584;SDS011;60618;40.084;32.908;2022-12-18T09:36:15;51.67;;;15.90;;
72584;SDS011;60618;40.084;32.908;2022-12-18T09:38:43;102.53;;;29.77;;
72584;SDS011;60618;40.084;32.908;2022-12-18T09:41:26;62.53;;;17.90;;
72584;SDS011;60618;40.084;32.908;2022-12-18T09:44:23;68.97;;;18.38;;
72584;SDS011;60618;40.084;32.908;2022-12-18T09:49:30;53.05;;;17.83;;
72584;SDS011;60618;40.084;32.908;2022-12-18T09:52:05;63.17;;;18.25;;
72584;SDS011;60618;40.084;32.908;2022-12-18T09:54:38;65.30;;;18.77;;
72584;SDS011;60618;40.084;32.908;2022-12-18T09:57:11;81.60;;;22.30;;
72584;SDS011;60618;40.084;32.908;2022-12-18T09:59:40;85.80;;;20.05;;
72584;SDS011;60618;40.084;32.908;2022-12-18T10:02:17;90.38;;;20.98;;
72584;SDS011;60618;40.084;32.908;2022-12-18T10:04:49;81.82;;;21.65;;
72584;SDS011;60618;40.084;32.908;2022-12-18T10:07:42;82.03;;;23.47;;
72584;SDS011;60618;40.084;32.908;2022-12-18T10:18:22;76.75;;;19.10;;
72584;SDS011;60618;40.084;32.908;2022-12-18T10:21:13;69.73;;;19.90;;
72584;SDS011;60618;40.084;32.908;2022-12-18T10:24:08;73.55;;;20.23;;
72584;SDS011;60618;40.084;32.908;2022-12-18T10:27:14;68.93;;;19.98;;
72584;SDS011;60618;40.084;32.908;2022-12-18T10:29:43;87.15;;;18.58;;
72584;SDS011;60618;40.084;32.908;2022-12-18T10:32:16;90.97;;;20.92;;
72584;SDS011;60618;40.084;32.908;2022-12-18T10:34:46;76.87;;;19.43;;
72584;SDS011;60618;40.084;32.908;2022-12-18T10:37:17;64.68;;;18.48;;
72584;SDS011;60618;40.084;32.908;2022-12-18T10:40:07;89.75;;;27.70;;
72584;SDS011;60618;40.084;32.908;2022-12-18T10:42:47;84.85;;;23.75;;
72584;SDS011;60618;40.084;32.908;2022-12-18T10:45:37;90.53;;;20.67;;
72584;SDS011;60618;40.084;32.908;2022-12-18T10:48:04;84.23;;;20.80;;
72584;SDS011;60618;40.084;32.908;2022-12-18T10:50:45;87.85;;;21.60;;
72584;SDS011;60618;40.084;32.908;2022-12-18T10:53:35;85.57;;;26.83;;
72584;SDS011;60618;40.084;32.908;2022-12-18T10:56:06;86.05;;;24.65;;
72584;SDS011;60618;40.084;32.908;2022-12-18T10:58:34;87.15;;;23.90;;
72584;SDS011;60618;40.084;32.908;2022-12-18T11:01:07;99.73;;;31.70;;
72584;SDS011;60618;40.084;32.908;2022-12-18T11:08:40;110.18;;;32.53;;
72584;SDS011;60618;40.084;32.908;2022-12-18T11:11:19;109.13;;;33.63;;
72584;SDS011;60618;40.084;32.908;2022-12-18T11:14:10;96.53;;;27.67;;
72584;SDS011;60618;40.084;32.908;2022-12-18T11:16:44;105.88;;;32.22;;
72584;SDS011;60618;40.084;32.908;2022-12-18T11:19:37;83.43;;;21.42;;
72584;SDS011;60618;40.084;32.908;2022-12-18T11:25:38;99.43;;;34.95;;
72584;SDS011;60618;40.084;32.908;2022-12-18T11:28:01;58.93;;;19.03;;
72584;SDS011;60618;40.084;32.908;2022-12-18T11:31:37;61.38;;;17.63;;
72584;SDS011;60618;40.084;32.908;2022-12-18T11:33:42;58.03;;;18.05;;
72584;SDS011;60618;40.084;32.908;2022-12-18T11:36:38;64.47;;;19.40;;
72584;SDS011;60618;40.084;32.908;2022-12-18T11:39:15;61.80;;;18.60;;
72584;SDS011;60618;40.084;32.908;2022-12-18T11:41:49;54.90;;;17.87;;
72584;SDS011;60618;40.084;32.908;2022-12-18T11:44:26;65.05;;;18.88;;
72584;SDS011;60618;40.084;32.908;2022-12-18T11:47:00;55.67;;;17.52;;
72584;SDS011;60618;40.084;32.908;2022-12-18T11:49:35;64.43;;;20.02;;
72584;SDS011;60618;40.084;32.908;2022-12-18T11:54:58;56.80;;;17.77;;
72584;SDS011;60618;40.084;32.908;2022-12-18T12:00:16;51.38;;;17.80;;
72584;SDS011;60618;40.084;32.908;2022-12-18T12:10:42;50.50;;;17.42;;
72584;SDS011;60618;40.084;32.908;2022-12-18T12:13:16;47.03;;;17.48;;
72584;SDS011;60618;40.084;32.908;2022-12-18T12:18:33;47.03;;;17.45;;
72584;SDS011;60618;40.084;32.908;2022-12-18T12:21:41;57.57;;;19.80;;
72584;SDS011;60618;40.084;32.908;2022-12-18T12:34:51;39.17;;;14.33;;
72584;SDS011;60618;40.084;32.908;2022-12-18T12:40:02;51.28;;;18.77;;
72584;SDS011;60618;40.084;32.908;2022-12-18T12:43:31;56.28;;;21.55;;
72584;SDS011;60618;40.084;32.908;2022-12-18T12:51:31;57.78;;;19.23;;
72584;SDS011;60618;40.084;32.908;2022-12-18T12:54:01;58.35;;;22.20;;
72584;SDS011;60618;40.084;32.908;2022-12-18T12:56:36;56.92;;;19.85;;
72584;SDS011;60618;40.084;32.908;2022-12-18T12:59:15;95.00;;;34.10;;
72584;SDS011;60618;40.084;32.908;2022-12-18T13:01:54;60.13;;;22.83;;
72584;SDS011;60618;40.084;32.908;2022-12-18T13:07:26;83.68;;;28.20;;
72584;SDS011;60618;40.084;32.908;2022-12-18T13:23:29;68.72;;;21.63;;
72584;SDS011;60618;40.084;32.908;2022-12-18T13:31:00;63.58;;;19.95;;
72584;SDS011;60618;40.084;32.908;2022-12-18T13:41:52;58.17;;;18.93;;
72584;SDS011;60618;40.084;32.908;2022-12-18T13:44:32;57.05;;;19.13;;
72584;SDS011;60618;40.084;32.908;2022-12-18T13:50:13;65.78;;;18.13;;
72584;SDS011;60618;40.084;32.908;2022-12-18T13:52:48;66.40;;;19.85;;
72584;SDS011;60618;40.084;32.908;2022-12-18T13:55:18;91.03;;;22.03;;
72584;SDS011;60618;40.084;32.908;2022-12-18T13:57:47;59.85;;;17.40;;
72584;SDS011;60618;40.084;32.908;2022-12-18T14:00:27;74.03;;;19.92;;
72584;SDS011;60618;40.084;32.908;2022-12-18T14:02:56;72.15;;;19.02;;
72584;SDS011;60618;40.084;32.908;2022-12-18T14:05:34;86.45;;;20.00;;
72584;SDS011;60618;40.084;32.908;2022-12-18T14:08:08;59.80;;;19.37;;
72584;SDS011;60618;40.084;32.908;2022-12-18T14:10:40;167.55;;;23.10;;
72584;SDS011;60618;40.084;32.908;2022-12-18T14:13:23;114.85;;;25.98;;
72584;SDS011;60618;40.084;32.908;2022-12-18T14:15:56;109.22;;;25.83;;
72584;SDS011;60618;40.084;32.908;2022-12-18T14:18:46;167.43;;;23.92;;
72584;SDS011;60618;40.084;32.908;2022-12-18T14:21:21;91.63;;;20.57;;
72584;SDS011;60618;40.084;32.908;2022-12-18T14:24:02;135.07;;;18.65;;
72584;SDS011;60618;40.084;32.908;2022-12-18T14:26:31;103.75;;;20.67;;
72584;SDS011;60618;40.084;32.908;2022-12-18T14:28:59;100.97;;;18.55;;
72584;SDS011;60618;40.084;32.908;2022-12-18T14:31:44;84.22;;;19.13;;
72584;SDS011;60618;40.084;32.908;2022-12-18T14:34:17;83.20;;;17.13;;
72584;SDS011;60618;40.084;32.908;2022-12-18T14:36:54;55.70;;;15.85;;
72584;SDS011;60618;40.084;32.908;2022-12-18T14:39:20;82.57;;;18.50;;
72584;SDS011;60618;40.084;32.908;2022-12-18T14:41:48;97.47;;;16.17;;
72584;SDS011;60618;40.084;32.908;2022-12-18T14:44:15;82.35;;;17.38;;
72584;SDS011;60618;40.084;32.908;2022-12-18T14:46:43;117.70;;;17.13;;
72584;SDS011;60618;40.084;32.908;2022-12-18T14:49:19;215.02;;;20.50;;
72584;SDS011;60618;40.084;32.908;2022-12-18T14:52:02;109.18;;;16.55;;
72584;SDS011;60618;40.084;32.908;2022-12-18T14:54:33;54.78;;;15.60;;
72584;SDS011;60618;40.084;32.908;2022-12-18T15:00:03;46.37;;;13.97;;
72584;SDS011;60618;40.084;32.908;2022-12-18T15:02:34;100.20;;;17.17;;
72584;SDS011;60618;40.084;32.908;2022-12-18T15:05:19;90.95;;;18.02;;
72584;SDS011;60618;40.084;32.908;2022-12-18T15:07:59;85.65;;;16.85;;
72584;SDS011;60618;40.084;32.908;2022-12-18T15:10:31;126.47;;;18.20;;
72584;SDS011;60618;40.084;32.908;2022-12-18T15:18:03;136.43;;;20.40;;
72584;SDS011;60618;40.084;32.908;2022-12-18T15:20:30;212.63;;;22.42;;
72584;SDS011;60618;40.084;32.908;2022-12-18T15:22:58;136.23;;;21.13;;
72584;SDS011;60618;40.084;32.908;2022-12-18T15:25:32;203.20;;;22.53;;
72584;SDS011;60618;40.084;32.908;2022-12-18T15:28:03;139.10;;;20.40;;
72584;SDS011;60618;40.084;32.908;2022-12-18T15:30:57;111.22;;;21.75;;
72584;SDS011;60618;40.084;32.908;2022-12-18T15:33:29;119.25;;;21.35;;
72584;SDS011;60618;40.084;32.908;2022-12-18T15:36:03;228.75;;;28.08;;
72584;SDS011;60618;40.084;32.908;2022-12-18T15:38:34;134.20;;;20.10;;
72584;SDS011;60618;40.084;32.908;2022-12-18T15:41:01;146.68;;;20.08;;
72584;SDS011;60618;40.084;32.908;2022-12-18T15:43:29;72.95;;;18.67;;
72584;SDS011;60618;40.084;32.908;2022-12-18T15:45:56;74.93;;;18.33;;
72584;SDS011;60618;40.084;32.908;2022-12-18T15:48:23;77.63;;;19.17;;
72584;SDS011;60618;40.084;32.908;2022-12-18T15:50:50;68.57;;;19.07;;
72584;SDS011;60618;40.084;32.908;2022-12-18T15:53:20;66.78;;;18.25;;
72584;SDS011;60618;40.084;32.908;2022-12-18T15:55:47;85.03;;;20.60;;
72584;SDS011;60618;40.084;32.908;2022-12-18T15:58:14;78.00;;;19.52;;
72584;SDS011;60618;40.084;32.908;2022-12-18T16:00:41;114.85;;;19.48;;
72584;SDS011;60618;40.084;32.908;2022-12-18T16:03:10;71.63;;;18.27;;
72584;SDS011;60618;40.084;32.908;2022-12-18T16:08:19;59.53;;;17.67;;
72584;SDS011;60618;40.084;32.908;2022-12-18T16:10:46;76.70;;;18.73;;
72584;SDS011;60618;40.084;32.908;2022-12-18T16:13:15;63.38;;;17.83;;
72584;SDS011;60618;40.084;32.908;2022-12-18T16:15:45;65.20;;;17.90;;
72584;SDS011;60618;40.084;32.908;2022-12-18T16:18:15;65.00;;;18.92;;
72584;SDS011;60618;40.084;32.908;2022-12-18T16:20:42;82.70;;;19.27;;
72584;SDS011;60618;40.084;32.908;2022-12-18T16:23:09;59.80;;;17.92;;
72584;SDS011;60618;40.084;32.908;2022-12-18T16:25:36;53.40;;;18.25;;
72584;SDS011;60618;40.084;32.908;2022-12-18T16:28:04;48.10;;;16.97;;
72584;SDS011;60618;40.084;32.908;2022-12-18T16:30:42;49.65;;;17.42;;
72584;SDS011;60618;40.084;32.908;2022-12-18T16:33:09;48.42;;;17.92;;